sensor_id;sensor_type;location;lat;lon;timestamp;P1;durP1;ratioP1;P2;durP2;ratioP2
72422;SDS011;60413;55.658;37.498;2022-09-11T00:01:28;15.65;;;7.13;;
72422;SDS011;60413;55.658;37.498;2022-09-11T00:03:55;20.45;;;7.82;;
72422;SDS011;60413;55.658;37.498;2022-09-11T00:06:22;20.90;;;7.45;;
72422;SDS011;60413;55.658;37.498;2022-09-11T00:08:53;22.92;;;7.68;;
72422;SDS011;60413;55.658;37.498;2022-09-11T00:11:25;21.10;;;8.07;;
72422;SDS011;60413;55.658;37.498;2022-09-11T00:13:53;22.08;;;8.05;;
72422;SDS011;60413;55.658;37.498;2022-09-11T00:16:24;19.48;;;8.20;;
72422;SDS011;60413;55.658;37.498;2022-09-11T00:18:51;19.65;;;7.60;;
72422;SDS011;60413;55.658;37.498;2022-09-11T00:21:19;18.52;;;7.18;;
72422;SDS011;60413;55.658;37.498;2022-09-11T00:23:45;22.38;;;8.43;;
72422;SDS011;60413;55.658;37.498;2022-09-11T00:26:15;20.30;;;7.88;;
72422;SDS011;60413;55.658;37.498;2022-09-11T00:28:45;21.83;;;7.75;;
72422;SDS011;60413;55.658;37.498;2022-09-11T00:31:13;22.20;;;9.10;;
72422;SDS011;60413;55.658;37.498;2022-09-11T00:33:41;22.35;;;8.13;;
72422;SDS011;60413;55.658;37.498;2022-09-11T00:36:13;22.42;;;9.02;;
72422;SDS011;60413;55.658;37.498;2022-09-11T00:38:40;21.38;;;8.05;;
72422;SDS011;60413;55.658;37.498;2022-09-11T00:41:26;21.67;;;8.40;;
72422;SDS011;60413;55.658;37.498;2022-09-11T00:49:50;20.45;;;7.82;;
72422;SDS011;60413;55.658;37.498;2022-09-11T00:52:20;27.95;;;8.25;;
72422;SDS011;60413;55.658;37.498;2022-09-11T00:54:48;25.05;;;8.80;;
72422;SDS011;60413;55.658;37.498;2022-09-11T00:57:28;20.67;;;8.70;;
72422;SDS011;60413;55.658;37.498;2022-09-11T00:59:58;17.10;;;7.22;;
72422;SDS011;60413;55.658;37.498;2022-09-11T01:02:26;17.70;;;7.18;;
72422;SDS011;60413;55.658;37.498;2022-09-11T01:04:55;19.17;;;7.95;;
72422;SDS011;60413;55.658;37.498;2022-09-11T01:07:23;22.33;;;8.45;;
72422;SDS011;60413;55.658;37.498;2022-09-11T01:09:51;24.10;;;8.80;;
72422;SDS011;60413;55.658;37.498;2022-09-11T01:15:05;16.92;;;7.25;;
72422;SDS011;60413;55.658;37.498;2022-09-11T01:28:47;18.10;;;7.88;;
72422;SDS011;60413;55.658;37.498;2022-09-11T01:31:19;12.95;;;6.43;;
72422;SDS011;60413;55.658;37.498;2022-09-11T01:33:50;13.18;;;6.20;;
72422;SDS011;60413;55.658;37.498;2022-09-11T01:36:21;11.05;;;5.25;;
72422;SDS011;60413;55.658;37.498;2022-09-11T01:38:54;17.90;;;5.88;;
72422;SDS011;60413;55.658;37.498;2022-09-11T01:46:39;11.75;;;5.10;;
72422;SDS011;60413;55.658;37.498;2022-09-11T01:51:52;12.85;;;5.00;;
72422;SDS011;60413;55.658;37.498;2022-09-11T01:54:22;9.88;;;4.75;;
72422;SDS011;60413;55.658;37.498;2022-09-11T01:56:52;9.90;;;4.32;;
72422;SDS011;60413;55.658;37.498;2022-09-11T01:59:26;9.98;;;4.28;;
72422;SDS011;60413;55.658;37.498;2022-09-11T02:02:01;12.10;;;5.32;;
72422;SDS011;60413;55.658;37.498;2022-09-11T02:04:39;8.75;;;4.03;;
72422;SDS011;60413;55.658;37.498;2022-09-11T02:07:18;12.73;;;4.60;;
72422;SDS011;60413;55.658;37.498;2022-09-11T02:09:54;8.98;;;4.22;;
72422;SDS011;60413;55.658;37.498;2022-09-11T02:12:48;8.10;;;4.22;;
72422;SDS011;60413;55.658;37.498;2022-09-11T02:15:23;8.48;;;3.70;;
72422;SDS011;60413;55.658;37.498;2022-09-11T02:17:59;9.73;;;3.70;;
72422;SDS011;60413;55.658;37.498;2022-09-11T02:20:28;9.38;;;3.53;;
72422;SDS011;60413;55.658;37.498;2022-09-11T02:22:56;9.57;;;3.65;;
72422;SDS011;60413;55.658;37.498;2022-09-11T02:25:23;8.90;;;3.58;;
72422;SDS011;60413;55.658;37.498;2022-09-11T02:27:54;7.28;;;3.78;;
72422;SDS011;60413;55.658;37.498;2022-09-11T02:30:23;8.27;;;3.50;;
72422;SDS011;60413;55.658;37.498;2022-09-11T02:32:49;7.38;;;3.15;;
72422;SDS011;60413;55.658;37.498;2022-09-11T02:35:15;5.53;;;2.97;;
72422;SDS011;60413;55.658;37.498;2022-09-11T02:37:52;7.78;;;3.47;;
72422;SDS011;60413;55.658;37.498;2022-09-11T02:46:19;6.80;;;3.15;;
72422;SDS011;60413;55.658;37.498;2022-09-11T02:49:09;5.53;;;2.80;;
72422;SDS011;60413;55.658;37.498;2022-09-11T02:54:54;5.25;;;3.00;;
72422;SDS011;60413;55.658;37.498;2022-09-11T02:57:29;4.65;;;2.50;;
72422;SDS011;60413;55.658;37.498;2022-09-11T03:00:04;6.63;;;3.13;;
72422;SDS011;60413;55.658;37.498;2022-09-11T03:02:32;10.02;;;2.67;;
72422;SDS011;60413;55.658;37.498;2022-09-11T03:05:03;6.05;;;2.72;;
72422;SDS011;60413;55.658;37.498;2022-09-11T03:07:30;5.82;;;2.92;;
72422;SDS011;60413;55.658;37.498;2022-09-11T03:09:58;8.23;;;2.72;;
72422;SDS011;60413;55.658;37.498;2022-09-11T03:12:24;6.97;;;3.20;;
72422;SDS011;60413;55.658;37.498;2022-09-11T03:14:51;9.98;;;3.00;;
72422;SDS011;60413;55.658;37.498;2022-09-11T03:17:19;7.70;;;3.00;;
72422;SDS011;60413;55.658;37.498;2022-09-11T03:19:46;3.92;;;2.55;;
72422;SDS011;60413;55.658;37.498;2022-09-11T03:22:12;6.38;;;3.22;;
72422;SDS011;60413;55.658;37.498;2022-09-11T03:24:40;5.75;;;3.17;;
72422;SDS011;60413;55.658;37.498;2022-09-11T03:27:07;8.48;;;3.47;;
72422;SDS011;60413;55.658;37.498;2022-09-11T03:29:34;7.90;;;4.05;;
72422;SDS011;60413;55.658;37.498;2022-09-11T03:32:00;9.27;;;3.83;;
72422;SDS011;60413;55.658;37.498;2022-09-11T03:34:29;10.73;;;3.60;;
72422;SDS011;60413;55.658;37.498;2022-09-11T03:36:58;9.00;;;3.95;;
72422;SDS011;60413;55.658;37.498;2022-09-11T03:39:25;8.52;;;3.40;;
72422;SDS011;60413;55.658;37.498;2022-09-11T03:41:51;7.50;;;3.67;;
72422;SDS011;60413;55.658;37.498;2022-09-11T03:44:18;10.75;;;4.28;;
72422;SDS011;60413;55.658;37.498;2022-09-11T03:46:46;6.35;;;4.20;;
72422;SDS011;60413;55.658;37.498;2022-09-11T03:49:12;7.63;;;3.72;;
72422;SDS011;60413;55.658;37.498;2022-09-11T03:51:40;7.40;;;4.10;;
72422;SDS011;60413;55.658;37.498;2022-09-11T03:54:06;9.48;;;4.07;;
72422;SDS011;60413;55.658;37.498;2022-09-11T03:56:35;8.25;;;3.83;;
72422;SDS011;60413;55.658;37.498;2022-09-11T03:59:04;11.40;;;4.55;;
72422;SDS011;60413;55.658;37.498;2022-09-11T04:01:30;12.25;;;4.47;;
72422;SDS011;60413;55.658;37.498;2022-09-11T04:03:56;8.00;;;4.72;;
72422;SDS011;60413;55.658;37.498;2022-09-11T04:06:36;7.75;;;4.20;;
72422;SDS011;60413;55.658;37.498;2022-09-11T04:09:03;7.75;;;4.00;;
72422;SDS011;60413;55.658;37.498;2022-09-11T04:11:29;7.35;;;4.20;;
72422;SDS011;60413;55.658;37.498;2022-09-11T04:13:58;16.13;;;7.68;;
72422;SDS011;60413;55.658;37.498;2022-09-11T04:16:28;15.15;;;5.15;;
72422;SDS011;60413;55.658;37.498;2022-09-11T04:18:58;7.47;;;4.57;;
72422;SDS011;60413;55.658;37.498;2022-09-11T04:21:28;9.48;;;4.10;;
72422;SDS011;60413;55.658;37.498;2022-09-11T04:23:55;14.05;;;4.75;;
72422;SDS011;60413;55.658;37.498;2022-09-11T04:26:26;11.13;;;4.88;;
72422;SDS011;60413;55.658;37.498;2022-09-11T04:29:03;10.43;;;4.40;;
72422;SDS011;60413;55.658;37.498;2022-09-11T04:31:30;8.68;;;4.97;;
72422;SDS011;60413;55.658;37.498;2022-09-11T04:36:38;10.60;;;4.95;;
72422;SDS011;60413;55.658;37.498;2022-09-11T04:39:07;7.43;;;4.68;;
72422;SDS011;60413;55.658;37.498;2022-09-11T04:41:33;6.55;;;4.05;;
72422;SDS011;60413;55.658;37.498;2022-09-11T04:44:00;14.73;;;5.00;;
72422;SDS011;60413;55.658;37.498;2022-09-11T04:46:27;16.33;;;5.03;;
72422;SDS011;60413;55.658;37.498;2022-09-11T04:49:07;13.10;;;3.67;;
72422;SDS011;60413;55.658;37.498;2022-09-11T04:51:40;13.38;;;4.03;;
72422;SDS011;60413;55.658;37.498;2022-09-11T04:54:12;7.95;;;3.90;;
72422;SDS011;60413;55.658;37.498;2022-09-11T04:56:40;8.65;;;3.42;;
72422;SDS011;60413;55.658;37.498;2022-09-11T04:59:16;11.02;;;3.70;;
72422;SDS011;60413;55.658;37.498;2022-09-11T05:02:09;12.45;;;4.00;;
72422;SDS011;60413;55.658;37.498;2022-09-11T05:04:38;8.45;;;3.65;;
72422;SDS011;60413;55.658;37.498;2022-09-11T05:07:08;6.90;;;3.55;;
72422;SDS011;60413;55.658;37.498;2022-09-11T05:09:41;16.33;;;7.32;;
72422;SDS011;60413;55.658;37.498;2022-09-11T05:12:19;10.07;;;3.90;;
72422;SDS011;60413;55.658;37.498;2022-09-11T05:14:50;14.73;;;4.18;;
72422;SDS011;60413;55.658;37.498;2022-09-11T05:17:19;9.43;;;3.10;;
72422;SDS011;60413;55.658;37.498;2022-09-11T05:19:54;9.43;;;3.35;;
72422;SDS011;60413;55.658;37.498;2022-09-11T05:22:24;7.00;;;3.20;;
72422;SDS011;60413;55.658;37.498;2022-09-11T05:24:58;7.88;;;2.90;;
72422;SDS011;60413;55.658;37.498;2022-09-11T05:30:22;8.52;;;3.25;;
72422;SDS011;60413;55.658;37.498;2022-09-11T05:32:57;8.85;;;3.00;;
72422;SDS011;60413;55.658;37.498;2022-09-11T05:35:32;7.57;;;3.33;;
72422;SDS011;60413;55.658;37.498;2022-09-11T05:41:12;11.73;;;2.90;;
72422;SDS011;60413;55.658;37.498;2022-09-11T05:43:42;10.20;;;3.33;;
72422;SDS011;60413;55.658;37.498;2022-09-11T05:46:27;16.70;;;6.15;;
72422;SDS011;60413;55.658;37.498;2022-09-11T05:49:01;11.82;;;4.15;;
72422;SDS011;60413;55.658;37.498;2022-09-11T05:51:35;9.45;;;3.50;;
72422;SDS011;60413;55.658;37.498;2022-09-11T05:54:03;12.27;;;3.70;;
72422;SDS011;60413;55.658;37.498;2022-09-11T05:56:30;8.65;;;2.75;;
72422;SDS011;60413;55.658;37.498;2022-09-11T05:59:07;8.90;;;3.20;;
72422;SDS011;60413;55.658;37.498;2022-09-11T06:01:49;8.25;;;3.35;;
72422;SDS011;60413;55.658;37.498;2022-09-11T06:04:39;6.57;;;3.00;;
72422;SDS011;60413;55.658;37.498;2022-09-11T06:07:34;6.25;;;2.80;;
72422;SDS011;60413;55.658;37.498;2022-09-11T06:13:53;10.05;;;3.17;;
72422;SDS011;60413;55.658;37.498;2022-09-11T06:16:34;8.57;;;2.97;;
72422;SDS011;60413;55.658;37.498;2022-09-11T06:19:35;11.38;;;3.13;;
72422;SDS011;60413;55.658;37.498;2022-09-11T06:22:33;5.30;;;2.45;;
72422;SDS011;60413;55.658;37.498;2022-09-11T06:26:11;9.27;;;3.35;;
72422;SDS011;60413;55.658;37.498;2022-09-11T06:28:57;7.22;;;2.67;;
72422;SDS011;60413;55.658;37.498;2022-09-11T06:31:33;5.80;;;2.75;;
72422;SDS011;60413;55.658;37.498;2022-09-11T06:34:04;6.05;;;2.30;;
72422;SDS011;60413;55.658;37.498;2022-09-11T06:36:34;6.13;;;2.83;;
72422;SDS011;60413;55.658;37.498;2022-09-11T06:39:08;11.80;;;2.83;;
72422;SDS011;60413;55.658;37.498;2022-09-11T06:41:38;6.05;;;2.35;;
72422;SDS011;60413;55.658;37.498;2022-09-11T06:44:33;11.77;;;2.83;;
72422;SDS011;60413;55.658;37.498;2022-09-11T06:47:29;6.72;;;2.80;;
72422;SDS011;60413;55.658;37.498;2022-09-11T06:53:25;5.25;;;2.50;;
72422;SDS011;60413;55.658;37.498;2022-09-11T06:56:28;6.07;;;2.47;;
72422;SDS011;60413;55.658;37.498;2022-09-11T06:59:01;4.10;;;2.60;;
72422;SDS011;60413;55.658;37.498;2022-09-11T07:07:52;5.35;;;2.47;;
72422;SDS011;60413;55.658;37.498;2022-09-11T07:11:18;6.45;;;2.75;;
72422;SDS011;60413;55.658;37.498;2022-09-11T07:14:49;8.68;;;3.17;;
72422;SDS011;60413;55.658;37.498;2022-09-11T07:17:41;6.07;;;2.88;;
72422;SDS011;60413;55.658;37.498;2022-09-11T07:20:16;7.88;;;3.10;;
72422;SDS011;60413;55.658;37.498;2022-09-11T07:23:14;7.15;;;3.05;;
72422;SDS011;60413;55.658;37.498;2022-09-11T07:26:07;8.07;;;2.90;;
72422;SDS011;60413;55.658;37.498;2022-09-11T07:31:42;4.97;;;2.92;;
72422;SDS011;60413;55.658;37.498;2022-09-11T07:34:13;7.05;;;3.40;;
72422;SDS011;60413;55.658;37.498;2022-09-11T07:36:45;6.93;;;3.30;;
72422;SDS011;60413;55.658;37.498;2022-09-11T07:39:18;5.60;;;3.13;;
72422;SDS011;60413;55.658;37.498;2022-09-11T07:44:36;6.43;;;3.00;;
72422;SDS011;60413;55.658;37.498;2022-09-11T07:47:06;7.45;;;3.10;;
72422;SDS011;60413;55.658;37.498;2022-09-11T07:49:40;4.78;;;2.45;;
72422;SDS011;60413;55.658;37.498;2022-09-11T07:52:32;5.07;;;2.80;;
72422;SDS011;60413;55.658;37.498;2022-09-11T07:55:29;4.07;;;2.42;;
72422;SDS011;60413;55.658;37.498;2022-09-11T07:58:00;6.07;;;2.00;;
72422;SDS011;60413;55.658;37.498;2022-09-11T08:04:35;6.43;;;2.58;;
72422;SDS011;60413;55.658;37.498;2022-09-11T08:07:10;8.35;;;3.08;;
72422;SDS011;60413;55.658;37.498;2022-09-11T08:13:01;6.47;;;2.90;;
72422;SDS011;60413;55.658;37.498;2022-09-11T08:15:52;6.38;;;2.40;;
72422;SDS011;60413;55.658;37.498;2022-09-11T08:18:50;6.30;;;2.15;;
72422;SDS011;60413;55.658;37.498;2022-09-11T08:22:44;8.52;;;2.30;;
72422;SDS011;60413;55.658;37.498;2022-09-11T08:36:19;5.03;;;2.08;;
72422;SDS011;60413;55.658;37.498;2022-09-11T08:39:22;7.32;;;1.80;;
72422;SDS011;60413;55.658;37.498;2022-09-11T08:42:13;3.15;;;1.35;;
72422;SDS011;60413;55.658;37.498;2022-09-11T08:44:58;4.30;;;1.70;;
72422;SDS011;60413;55.658;37.498;2022-09-11T08:47:38;6.93;;;1.58;;
72422;SDS011;60413;55.658;37.498;2022-09-11T08:50:11;5.30;;;2.15;;
72422;SDS011;60413;55.658;37.498;2022-09-11T08:52:44;6.22;;;2.08;;
72422;SDS011;60413;55.658;37.498;2022-09-11T08:55:16;9.85;;;3.25;;
72422;SDS011;60413;55.658;37.498;2022-09-11T09:07:56;5.10;;;1.90;;
72422;SDS011;60413;55.658;37.498;2022-09-11T09:16:20;5.03;;;2.17;;
72422;SDS011;60413;55.658;37.498;2022-09-11T09:22:21;5.15;;;2.10;;
72422;SDS011;60413;55.658;37.498;2022-09-11T09:28:25;6.13;;;2.45;;
72422;SDS011;60413;55.658;37.498;2022-09-11T09:30:57;4.35;;;1.92;;
72422;SDS011;60413;55.658;37.498;2022-09-11T09:36:42;5.63;;;2.08;;
72422;SDS011;60413;55.658;37.498;2022-09-11T09:39:43;4.32;;;2.15;;
72422;SDS011;60413;55.658;37.498;2022-09-11T09:45:24;5.93;;;1.98;;
72422;SDS011;60413;55.658;37.498;2022-09-11T09:48:06;4.13;;;1.23;;
72422;SDS011;60413;55.658;37.498;2022-09-11T09:50:36;2.90;;;1.45;;
72422;SDS011;60413;55.658;37.498;2022-09-11T09:55:59;6.93;;;2.15;;
72422;SDS011;60413;55.658;37.498;2022-09-11T10:04:35;3.42;;;1.58;;
72422;SDS011;60413;55.658;37.498;2022-09-11T10:09:51;4.28;;;1.70;;
72422;SDS011;60413;55.658;37.498;2022-09-11T10:12:30;6.35;;;1.70;;
72422;SDS011;60413;55.658;37.498;2022-09-11T10:15:05;4.00;;;1.70;;
72422;SDS011;60413;55.658;37.498;2022-09-11T10:17:32;5.72;;;1.83;;
72422;SDS011;60413;55.658;37.498;2022-09-11T10:23:21;3.85;;;1.60;;
72422;SDS011;60413;55.658;37.498;2022-09-11T10:25:53;3.13;;;1.60;;
72422;SDS011;60413;55.658;37.498;2022-09-11T10:28:31;3.08;;;1.52;;
72422;SDS011;60413;55.658;37.498;2022-09-11T10:31:34;4.63;;;1.50;;
72422;SDS011;60413;55.658;37.498;2022-09-11T10:34:28;7.55;;;1.73;;
72422;SDS011;60413;55.658;37.498;2022-09-11T10:37:02;4.70;;;2.15;;
72422;SDS011;60413;55.658;37.498;2022-09-11T10:39:35;4.38;;;1.85;;
72422;SDS011;60413;55.658;37.498;2022-09-11T10:42:14;6.13;;;1.80;;
72422;SDS011;60413;55.658;37.498;2022-09-11T10:44:49;4.85;;;1.50;;
72422;SDS011;60413;55.658;37.498;2022-09-11T10:47:53;3.33;;;1.55;;
72422;SDS011;60413;55.658;37.498;2022-09-11T10:50:32;4.50;;;1.80;;
72422;SDS011;60413;55.658;37.498;2022-09-11T10:55:38;3.42;;;1.80;;
72422;SDS011;60413;55.658;37.498;2022-09-11T10:58:22;2.83;;;1.48;;
72422;SDS011;60413;55.658;37.498;2022-09-11T11:04:22;4.65;;;1.83;;
72422;SDS011;60413;55.658;37.498;2022-09-11T11:09:44;3.80;;;1.70;;
72422;SDS011;60413;55.658;37.498;2022-09-11T11:15:27;4.38;;;1.88;;
72422;SDS011;60413;55.658;37.498;2022-09-11T11:23:20;6.55;;;1.80;;
72422;SDS011;60413;55.658;37.498;2022-09-11T11:37:11;6.97;;;2.13;;
72422;SDS011;60413;55.658;37.498;2022-09-11T11:39:59;5.35;;;2.58;;
72422;SDS011;60413;55.658;37.498;2022-09-11T11:43:15;5.03;;;2.10;;
72422;SDS011;60413;55.658;37.498;2022-09-11T11:45:56;4.80;;;1.95;;
72422;SDS011;60413;55.658;37.498;2022-09-11T11:48:30;4.80;;;1.50;;
72422;SDS011;60413;55.658;37.498;2022-09-11T11:51:10;3.85;;;1.40;;
72422;SDS011;60413;55.658;37.498;2022-09-11T11:53:57;6.13;;;1.73;;
72422;SDS011;60413;55.658;37.498;2022-09-11T11:56:43;1.90;;;1.05;;
72422;SDS011;60413;55.658;37.498;2022-09-11T11:59:21;3.33;;;2.00;;
72422;SDS011;60413;55.658;37.498;2022-09-11T12:05:09;4.50;;;2.22;;
72422;SDS011;60413;55.658;37.498;2022-09-11T12:08:42;6.63;;;1.98;;
72422;SDS011;60413;55.658;37.498;2022-09-11T12:11:24;7.05;;;1.60;;
72422;SDS011;60413;55.658;37.498;2022-09-11T12:17:31;3.05;;;1.42;;
72422;SDS011;60413;55.658;37.498;2022-09-11T12:31:04;3.60;;;1.40;;
72422;SDS011;60413;55.658;37.498;2022-09-11T12:34:02;5.38;;;1.50;;
72422;SDS011;60413;55.658;37.498;2022-09-11T12:37:40;3.40;;;1.30;;
72422;SDS011;60413;55.658;37.498;2022-09-11T12:41:20;2.88;;;1.65;;
72422;SDS011;60413;55.658;37.498;2022-09-11T12:44:27;2.50;;;1.10;;
72422;SDS011;60413;55.658;37.498;2022-09-11T12:54:28;5.22;;;1.30;;
72422;SDS011;60413;55.658;37.498;2022-09-11T12:57:49;4.70;;;1.20;;
72422;SDS011;60413;55.658;37.498;2022-09-11T13:09:19;4.13;;;1.30;;
72422;SDS011;60413;55.658;37.498;2022-09-11T13:20:27;3.47;;;1.17;;
72422;SDS011;60413;55.658;37.498;2022-09-11T13:25:56;5.50;;;1.33;;
72422;SDS011;60413;55.658;37.498;2022-09-11T13:29:09;5.10;;;1.48;;
72422;SDS011;60413;55.658;37.498;2022-09-11T13:47:52;3.60;;;1.20;;
72422;SDS011;60413;55.658;37.498;2022-09-11T14:04:12;3.65;;;1.13;;
72422;SDS011;60413;55.658;37.498;2022-09-11T14:08:35;6.60;;;1.80;;
72422;SDS011;60413;55.658;37.498;2022-09-11T14:22:42;2.83;;;1.33;;
72422;SDS011;60413;55.658;37.498;2022-09-11T14:26:08;9.00;;;1.65;;
72422;SDS011;60413;55.658;37.498;2022-09-11T14:32:37;4.88;;;1.85;;
72422;SDS011;60413;55.658;37.498;2022-09-11T14:35:37;3.72;;;1.50;;
72422;SDS011;60413;55.658;37.498;2022-09-11T14:42:27;3.92;;;1.50;;
72422;SDS011;60413;55.658;37.498;2022-09-11T14:51:41;4.72;;;1.65;;
72422;SDS011;60413;55.658;37.498;2022-09-11T14:57:21;4.75;;;1.50;;
72422;SDS011;60413;55.658;37.498;2022-09-11T15:00:14;8.65;;;1.90;;
72422;SDS011;60413;55.658;37.498;2022-09-11T15:03:26;3.65;;;2.08;;
72422;SDS011;60413;55.658;37.498;2022-09-11T15:06:41;8.35;;;1.92;;
72422;SDS011;60413;55.658;37.498;2022-09-11T15:15:36;8.50;;;1.90;;
72422;SDS011;60413;55.658;37.498;2022-09-11T15:18:36;5.72;;;1.75;;
72422;SDS011;60413;55.658;37.498;2022-09-11T15:22:00;3.47;;;1.35;;
72422;SDS011;60413;55.658;37.498;2022-09-11T15:25:33;3.72;;;1.60;;
72422;SDS011;60413;55.658;37.498;2022-09-11T15:29:02;4.10;;;1.75;;
72422;SDS011;60413;55.658;37.498;2022-09-11T15:32:17;7.20;;;2.10;;
72422;SDS011;60413;55.658;37.498;2022-09-11T15:35:01;7.78;;;3.22;;
72422;SDS011;60413;55.658;37.498;2022-09-11T15:38:10;8.25;;;3.50;;
72422;SDS011;60413;55.658;37.498;2022-09-11T15:40:55;6.60;;;2.35;;
72422;SDS011;60413;55.658;37.498;2022-09-11T15:43:45;7.57;;;2.17;;
72422;SDS011;60413;55.658;37.498;2022-09-11T15:47:15;5.50;;;1.90;;
72422;SDS011;60413;55.658;37.498;2022-09-11T15:49:56;5.63;;;2.03;;
72422;SDS011;60413;55.658;37.498;2022-09-11T15:55:37;5.75;;;2.17;;
72422;SDS011;60413;55.658;37.498;2022-09-11T15:58:38;6.10;;;2.17;;
72422;SDS011;60413;55.658;37.498;2022-09-11T16:01:25;8.07;;;3.05;;
72422;SDS011;60413;55.658;37.498;2022-09-11T16:04:07;6.15;;;2.45;;
72422;SDS011;60413;55.658;37.498;2022-09-11T16:07:18;6.88;;;2.20;;
72422;SDS011;60413;55.658;37.498;2022-09-11T16:10:05;5.68;;;2.38;;
72422;SDS011;60413;55.658;37.498;2022-09-11T16:12:47;7.50;;;2.40;;
72422;SDS011;60413;55.658;37.498;2022-09-11T16:15:44;7.03;;;1.90;;
72422;SDS011;60413;55.658;37.498;2022-09-11T16:18:37;7.47;;;2.53;;
72422;SDS011;60413;55.658;37.498;2022-09-11T16:21:21;4.47;;;2.28;;
72422;SDS011;60413;55.658;37.498;2022-09-11T16:23:54;6.20;;;2.83;;
72422;SDS011;60413;55.658;37.498;2022-09-11T16:26:40;10.02;;;3.38;;
72422;SDS011;60413;55.658;37.498;2022-09-11T16:29:21;5.80;;;2.35;;
72422;SDS011;60413;55.658;37.498;2022-09-11T16:31:53;8.25;;;2.83;;
72422;SDS011;60413;55.658;37.498;2022-09-11T16:34:58;6.32;;;3.00;;
72422;SDS011;60413;55.658;37.498;2022-09-11T16:37:30;13.10;;;3.17;;
72422;SDS011;60413;55.658;37.498;2022-09-11T16:40:22;6.65;;;2.90;;
72422;SDS011;60413;55.658;37.498;2022-09-11T16:43:42;8.95;;;3.30;;
72422;SDS011;60413;55.658;37.498;2022-09-11T16:46:38;10.40;;;3.85;;
72422;SDS011;60413;55.658;37.498;2022-09-11T16:49:24;12.98;;;3.65;;
72422;SDS011;60413;55.658;37.498;2022-09-11T16:59:03;15.13;;;4.57;;
72422;SDS011;60413;55.658;37.498;2022-09-11T17:06:30;8.45;;;3.83;;
72422;SDS011;60413;55.658;37.498;2022-09-11T17:09:39;8.70;;;3.55;;
72422;SDS011;60413;55.658;37.498;2022-09-11T17:12:47;9.75;;;4.85;;
72422;SDS011;60413;55.658;37.498;2022-09-11T17:16:39;8.48;;;4.00;;
72422;SDS011;60413;55.658;37.498;2022-09-11T17:20:40;6.95;;;3.55;;
72422;SDS011;60413;55.658;37.498;2022-09-11T17:23:36;8.50;;;3.25;;
72422;SDS011;60413;55.658;37.498;2022-09-11T17:26:42;12.63;;;3.80;;
72422;SDS011;60413;55.658;37.498;2022-09-11T17:33:05;8.77;;;3.60;;
72422;SDS011;60413;55.658;37.498;2022-09-11T17:36:29;8.23;;;3.20;;
72422;SDS011;60413;55.658;37.498;2022-09-11T17:39:08;6.78;;;3.42;;
72422;SDS011;60413;55.658;37.498;2022-09-11T17:42:32;10.35;;;3.30;;
72422;SDS011;60413;55.658;37.498;2022-09-11T17:45:08;7.20;;;2.90;;
72422;SDS011;60413;55.658;37.498;2022-09-11T17:47:40;6.53;;;3.05;;
72422;SDS011;60413;55.658;37.498;2022-09-11T17:53:43;11.25;;;3.80;;
72422;SDS011;60413;55.658;37.498;2022-09-11T17:56:34;9.88;;;3.72;;
72422;SDS011;60413;55.658;37.498;2022-09-11T17:59:55;9.65;;;3.72;;
72422;SDS011;60413;55.658;37.498;2022-09-11T18:02:47;9.93;;;3.40;;
72422;SDS011;60413;55.658;37.498;2022-09-11T18:06:15;8.35;;;2.88;;
72422;SDS011;60413;55.658;37.498;2022-09-11T18:08:57;7.18;;;2.75;;
72422;SDS011;60413;55.658;37.498;2022-09-11T18:11:52;6.35;;;2.40;;
72422;SDS011;60413;55.658;37.498;2022-09-11T18:14:49;9.20;;;2.53;;
72422;SDS011;60413;55.658;37.498;2022-09-11T18:18:16;8.38;;;2.55;;
72422;SDS011;60413;55.658;37.498;2022-09-11T18:28:45;5.65;;;2.28;;
72422;SDS011;60413;55.658;37.498;2022-09-11T18:32:28;6.70;;;2.28;;
72422;SDS011;60413;55.658;37.498;2022-09-11T18:48:43;6.40;;;2.50;;
72422;SDS011;60413;55.658;37.498;2022-09-11T18:52:29;6.57;;;2.83;;
72422;SDS011;60413;55.658;37.498;2022-09-11T19:16:00;6.72;;;2.90;;
72422;SDS011;60413;55.658;37.498;2022-09-11T19:19:04;6.55;;;2.90;;
72422;SDS011;60413;55.658;37.498;2022-09-11T19:25:15;8.68;;;3.47;;
72422;SDS011;60413;55.658;37.498;2022-09-11T19:28:35;7.95;;;3.28;;
72422;SDS011;60413;55.658;37.498;2022-09-11T19:31:54;6.45;;;3.47;;
72422;SDS011;60413;55.658;37.498;2022-09-11T19:34:42;8.65;;;4.13;;
72422;SDS011;60413;55.658;37.498;2022-09-11T19:38:04;8.77;;;3.50;;
72422;SDS011;60413;55.658;37.498;2022-09-11T19:41:13;11.00;;;3.92;;
72422;SDS011;60413;55.658;37.498;2022-09-11T19:44:52;9.85;;;4.32;;
72422;SDS011;60413;55.658;37.498;2022-09-11T19:47:52;8.57;;;3.60;;
72422;SDS011;60413;55.658;37.498;2022-09-11T19:50:18;9.40;;;4.35;;
72422;SDS011;60413;55.658;37.498;2022-09-11T19:53:05;8.98;;;4.28;;
72422;SDS011;60413;55.658;37.498;2022-09-11T19:56:08;10.73;;;4.25;;
72422;SDS011;60413;55.658;37.498;2022-09-11T19:58:40;10.50;;;4.63;;
72422;SDS011;60413;55.658;37.498;2022-09-11T20:01:11;10.00;;;4.68;;
72422;SDS011;60413;55.658;37.498;2022-09-11T20:03:53;17.88;;;5.07;;
72422;SDS011;60413;55.658;37.498;2022-09-11T20:06:23;7.55;;;3.63;;
72422;SDS011;60413;55.658;37.498;2022-09-11T20:08:51;8.75;;;3.65;;
72422;SDS011;60413;55.658;37.498;2022-09-11T20:11:22;11.18;;;4.72;;
72422;SDS011;60413;55.658;37.498;2022-09-11T20:14:11;10.18;;;4.22;;
72422;SDS011;60413;55.658;37.498;2022-09-11T20:16:40;8.70;;;4.00;;
72422;SDS011;60413;55.658;37.498;2022-09-11T20:19:06;12.80;;;5.32;;
72422;SDS011;60413;55.658;37.498;2022-09-11T20:21:33;10.55;;;4.97;;
72422;SDS011;60413;55.658;37.498;2022-09-11T20:24:05;11.63;;;4.25;;
72422;SDS011;60413;55.658;37.498;2022-09-11T20:26:31;8.82;;;4.20;;
72422;SDS011;60413;55.658;37.498;2022-09-11T20:29:01;12.75;;;4.90;;
72422;SDS011;60413;55.658;37.498;2022-09-11T20:31:32;16.80;;;5.18;;
72422;SDS011;60413;55.658;37.498;2022-09-11T20:34:06;9.95;;;4.57;;
72422;SDS011;60413;55.658;37.498;2022-09-11T20:36:32;11.43;;;3.78;;
72422;SDS011;60413;55.658;37.498;2022-09-11T20:38:58;14.18;;;5.57;;
72422;SDS011;60413;55.658;37.498;2022-09-11T20:41:26;14.68;;;5.05;;
72422;SDS011;60413;55.658;37.498;2022-09-11T20:43:54;9.85;;;4.72;;
72422;SDS011;60413;55.658;37.498;2022-09-11T20:46:22;14.50;;;4.28;;
72422;SDS011;60413;55.658;37.498;2022-09-11T20:48:53;11.23;;;4.65;;
72422;SDS011;60413;55.658;37.498;2022-09-11T20:51:30;11.43;;;4.72;;
72422;SDS011;60413;55.658;37.498;2022-09-11T20:53:57;11.50;;;5.18;;
72422;SDS011;60413;55.658;37.498;2022-09-11T20:56:32;11.77;;;4.60;;
72422;SDS011;60413;55.658;37.498;2022-09-11T20:58:58;18.20;;;4.43;;
72422;SDS011;60413;55.658;37.498;2022-09-11T21:01:25;11.95;;;4.22;;
72422;SDS011;60413;55.658;37.498;2022-09-11T21:03:53;11.82;;;5.03;;
72422;SDS011;60413;55.658;37.498;2022-09-11T21:06:22;16.08;;;5.20;;
72422;SDS011;60413;55.658;37.498;2022-09-11T21:08:50;18.50;;;4.90;;
72422;SDS011;60413;55.658;37.498;2022-09-11T21:11:18;16.40;;;5.65;;
72422;SDS011;60413;55.658;37.498;2022-09-11T21:13:44;13.73;;;4.78;;
72422;SDS011;60413;55.658;37.498;2022-09-11T21:16:14;28.05;;;5.53;;
72422;SDS011;60413;55.658;37.498;2022-09-11T21:18:44;19.02;;;5.95;;
72422;SDS011;60413;55.658;37.498;2022-09-11T21:21:12;14.13;;;5.22;;
72422;SDS011;60413;55.658;37.498;2022-09-11T21:23:40;11.98;;;4.47;;
72422;SDS011;60413;55.658;37.498;2022-09-11T21:26:10;10.10;;;4.43;;
72422;SDS011;60413;55.658;37.498;2022-09-11T21:28:37;11.00;;;5.35;;
72422;SDS011;60413;55.658;37.498;2022-09-11T21:31:06;14.77;;;5.10;;